sensor_id;sensor_type;location;lat;lon;timestamp;temperature;humidity
6373;DHT22;3219;51.362;7.074;2023-04-09T00:00:09;6.90;99.90
6373;DHT22;3219;51.362;7.074;2023-04-09T00:02:36;7.00;99.90
6373;DHT22;3219;51.362;7.074;2023-04-09T00:05:04;6.90;99.90
6373;DHT22;3219;51.362;7.074;2023-04-09T00:07:31;6.80;99.90
6373;DHT22;3219;51.362;7.074;2023-04-09T00:09:58;6.80;99.90
6373;DHT22;3219;51.362;7.074;2023-04-09T00:12:25;6.70;99.90
6373;DHT22;3219;51.362;7.074;2023-04-09T00:14:52;6.60;99.90
6373;DHT22;3219;51.362;7.074;2023-04-09T00:17:18;6.60;99.90
6373;DHT22;3219;51.362;7.074;2023-04-09T00:19:45;6.50;99.90
6373;DHT22;3219;51.362;7.074;2023-04-09T00:22:13;6.50;99.90
6373;DHT22;3219;51.362;7.074;2023-04-09T00:24:40;6.40;99.90
6373;DHT22;3219;51.362;7.074;2023-04-09T00:27:07;6.40;99.90
6373;DHT22;3219;51.362;7.074;2023-04-09T00:29:34;6.40;99.90
6373;DHT22;3219;51.362;7.074;2023-04-09T00:32:01;6.40;99.90
6373;DHT22;3219;51.362;7.074;2023-04-09T00:34:27;6.40;99.90
6373;DHT22;3219;51.362;7.074;2023-04-09T00:36:54;6.30;99.90
6373;DHT22;3219;51.362;7.074;2023-04-09T00:39:22;6.30;99.90
6373;DHT22;3219;51.362;7.074;2023-04-09T00:41:49;6.30;99.90
6373;DHT22;3219;51.362;7.074;2023-04-09T00:44:16;6.30;99.90
6373;DHT22;3219;51.362;7.074;2023-04-09T00:46:42;6.30;99.90
6373;DHT22;3219;51.362;7.074;2023-04-09T00:49:09;6.20;99.90
6373;DHT22;3219;51.362;7.074;2023-04-09T00:51:36;6.20;99.90
6373;DHT22;3219;51.362;7.074;2023-04-09T00:54:03;6.10;99.90
6373;DHT22;3219;51.362;7.074;2023-04-09T00:56:32;6.10;99.90
6373;DHT22;3219;51.362;7.074;2023-04-09T00:58:59;6.10;99.90
6373;DHT22;3219;51.362;7.074;2023-04-09T01:01:26;6.00;99.90
6373;DHT22;3219;51.362;7.074;2023-04-09T01:03:53;6.00;99.90
6373;DHT22;3219;51.362;7.074;2023-04-09T01:06:30;6.00;99.90
6373;DHT22;3219;51.362;7.074;2023-04-09T01:09:02;6.00;99.90
6373;DHT22;3219;51.362;7.074;2023-04-09T01:11:37;5.90;99.90
6373;DHT22;3219;51.362;7.074;2023-04-09T01:14:07;5.80;99.90
6373;DHT22;3219;51.362;7.074;2023-04-09T01:16:41;5.80;99.90
6373;DHT22;3219;51.362;7.074;2023-04-09T01:19:20;5.80;99.90
6373;DHT22;3219;51.362;7.074;2023-04-09T01:21:49;5.70;99.90
6373;DHT22;3219;51.362;7.074;2023-04-09T01:24:25;5.70;99.90
6373;DHT22;3219;51.362;7.074;2023-04-09T01:27:01;5.70;99.90
6373;DHT22;3219;51.362;7.074;2023-04-09T01:29:31;5.70;99.90
6373;DHT22;3219;51.362;7.074;2023-04-09T01:31:59;5.70;99.90
6373;DHT22;3219;51.362;7.074;2023-04-09T01:34:27;5.70;99.90
6373;DHT22;3219;51.362;7.074;2023-04-09T01:36:56;5.70;99.90
6373;DHT22;3219;51.362;7.074;2023-04-09T01:39:25;5.70;99.90
6373;DHT22;3219;51.362;7.074;2023-04-09T01:41:52;5.60;99.90
6373;DHT22;3219;51.362;7.074;2023-04-09T01:44:20;5.50;99.90
6373;DHT22;3219;51.362;7.074;2023-04-09T01:46:50;5.60;99.90
6373;DHT22;3219;51.362;7.074;2023-04-09T01:49:17;5.50;99.90
6373;DHT22;3219;51.362;7.074;2023-04-09T01:51:45;5.40;99.90
6373;DHT22;3219;51.362;7.074;2023-04-09T01:54:12;5.40;99.90
6373;DHT22;3219;51.362;7.074;2023-04-09T01:56:40;5.30;99.90
6373;DHT22;3219;51.362;7.074;2023-04-09T01:59:07;5.30;99.90
6373;DHT22;3219;51.362;7.074;2023-04-09T02:01:37;5.30;99.90
6373;DHT22;3219;51.362;7.074;2023-04-09T02:04:10;5.30;99.90
6373;DHT22;3219;51.362;7.074;2023-04-09T02:06:43;5.30;99.90
6373;DHT22;3219;51.362;7.074;2023-04-09T02:09:12;5.20;99.90
6373;DHT22;3219;51.362;7.074;2023-04-09T02:11:42;5.20;99.90
6373;DHT22;3219;51.362;7.074;2023-04-09T02:14:11;5.20;99.90
6373;DHT22;3219;51.362;7.074;2023-04-09T02:16:39;5.20;99.90
6373;DHT22;3219;51.362;7.074;2023-04-09T02:19:08;5.20;99.90
6373;DHT22;3219;51.362;7.074;2023-04-09T02:21:34;5.10;99.90
6373;DHT22;3219;51.362;7.074;2023-04-09T02:24:01;5.10;99.90
6373;DHT22;3219;51.362;7.074;2023-04-09T02:26:28;5.10;99.90
6373;DHT22;3219;51.362;7.074;2023-04-09T02:28:55;5.10;99.90
6373;DHT22;3219;51.362;7.074;2023-04-09T02:31:22;5.00;99.90
6373;DHT22;3219;51.362;7.074;2023-04-09T02:33:50;5.00;99.90
6373;DHT22;3219;51.362;7.074;2023-04-09T02:36:20;4.90;99.90
6373;DHT22;3219;51.362;7.074;2023-04-09T02:38:47;4.90;99.90
6373;DHT22;3219;51.362;7.074;2023-04-09T02:41:13;4.90;99.90
6373;DHT22;3219;51.362;7.074;2023-04-09T02:43:40;4.80;99.90
6373;DHT22;3219;51.362;7.074;2023-04-09T02:46:07;4.80;99.90
6373;DHT22;3219;51.362;7.074;2023-04-09T02:48:34;4.80;99.90
6373;DHT22;3219;51.362;7.074;2023-04-09T02:51:03;4.90;99.90
6373;DHT22;3219;51.362;7.074;2023-04-09T02:53:31;4.90;99.90
6373;DHT22;3219;51.362;7.074;2023-04-09T02:55:58;5.00;99.90
6373;DHT22;3219;51.362;7.074;2023-04-09T02:58:24;5.00;99.90
6373;DHT22;3219;51.362;7.074;2023-04-09T03:00:51;4.90;99.90
6373;DHT22;3219;51.362;7.074;2023-04-09T03:03:18;4.90;99.90
6373;DHT22;3219;51.362;7.074;2023-04-09T03:05:44;4.90;99.90
6373;DHT22;3219;51.362;7.074;2023-04-09T03:08:11;4.90;99.90
6373;DHT22;3219;51.362;7.074;2023-04-09T03:10:39;4.90;99.90
6373;DHT22;3219;51.362;7.074;2023-04-09T03:13:06;4.90;99.90
6373;DHT22;3219;51.362;7.074;2023-04-09T03:15:33;4.90;99.90
6373;DHT22;3219;51.362;7.074;2023-04-09T03:17:59;4.80;99.90
6373;DHT22;3219;51.362;7.074;2023-04-09T03:20:26;4.90;99.90
6373;DHT22;3219;51.362;7.074;2023-04-09T03:22:53;4.90;99.90
6373;DHT22;3219;51.362;7.074;2023-04-09T03:25:20;4.90;99.90
6373;DHT22;3219;51.362;7.074;2023-04-09T03:27:48;5.00;99.90
6373;DHT22;3219;51.362;7.074;2023-04-09T03:30:15;5.00;99.90
6373;DHT22;3219;51.362;7.074;2023-04-09T03:32:41;5.00;99.90
6373;DHT22;3219;51.362;7.074;2023-04-09T03:35:08;5.00;99.90
6373;DHT22;3219;51.362;7.074;2023-04-09T03:37:35;5.10;99.90
6373;DHT22;3219;51.362;7.074;2023-04-09T03:40:02;5.10;99.90
6373;DHT22;3219;51.362;7.074;2023-04-09T03:42:29;5.20;99.90
6373;DHT22;3219;51.362;7.074;2023-04-09T03:44:57;5.20;99.90
6373;DHT22;3219;51.362;7.074;2023-04-09T03:47:23;5.10;99.90
6373;DHT22;3219;51.362;7.074;2023-04-09T03:49:50;5.20;99.90
6373;DHT22;3219;51.362;7.074;2023-04-09T03:52:17;5.10;99.90
6373;DHT22;3219;51.362;7.074;2023-04-09T03:54:44;5.10;99.90
6373;DHT22;3219;51.362;7.074;2023-04-09T03:57:11;5.10;99.90
6373;DHT22;3219;51.362;7.074;2023-04-09T03:59:37;5.10;99.90
6373;DHT22;3219;51.362;7.074;2023-04-09T04:02:05;5.00;99.90
6373;DHT22;3219;51.362;7.074;2023-04-09T04:04:32;4.90;99.90
6373;DHT22;3219;51.362;7.074;2023-04-09T04:06:59;4.80;99.90
6373;DHT22;3219;51.362;7.074;2023-04-09T04:09:25;4.80;99.90
6373;DHT22;3219;51.362;7.074;2023-04-09T04:11:52;4.80;99.90
6373;DHT22;3219;51.362;7.074;2023-04-09T04:14:19;4.70;99.90
6373;DHT22;3219;51.362;7.074;2023-04-09T04:16:46;4.70;99.90
6373;DHT22;3219;51.362;7.074;2023-04-09T04:19:14;4.70;99.90
6373;DHT22;3219;51.362;7.074;2023-04-09T04:21:41;4.70;99.90
6373;DHT22;3219;51.362;7.074;2023-04-09T04:24:08;4.60;99.90
6373;DHT22;3219;51.362;7.074;2023-04-09T04:26:34;4.60;99.90
6373;DHT22;3219;51.362;7.074;2023-04-09T04:29:01;4.60;99.90
6373;DHT22;3219;51.362;7.074;2023-04-09T04:31:28;4.70;99.90
6373;DHT22;3219;51.362;7.074;2023-04-09T04:33:54;4.70;99.90
6373;DHT22;3219;51.362;7.074;2023-04-09T04:36:22;4.70;99.90
6373;DHT22;3219;51.362;7.074;2023-04-09T04:38:50;4.70;99.90
6373;DHT22;3219;51.362;7.074;2023-04-09T04:41:17;4.80;99.90
6373;DHT22;3219;51.362;7.074;2023-04-09T04:43:45;4.80;99.90
6373;DHT22;3219;51.362;7.074;2023-04-09T04:46:12;4.80;99.90
6373;DHT22;3219;51.362;7.074;2023-04-09T04:48:39;4.70;99.90
6373;DHT22;3219;51.362;7.074;2023-04-09T04:51:06;4.80;99.90
6373;DHT22;3219;51.362;7.074;2023-04-09T04:53:34;4.80;99.90
6373;DHT22;3219;51.362;7.074;2023-04-09T04:56:00;4.80;99.90
6373;DHT22;3219;51.362;7.074;2023-04-09T04:58:27;4.80;99.90
6373;DHT22;3219;51.362;7.074;2023-04-09T05:00:55;4.80;99.90
6373;DHT22;3219;51.362;7.074;2023-04-09T05:03:21;4.90;99.90
6373;DHT22;3219;51.362;7.074;2023-04-09T05:05:48;4.80;99.90
6373;DHT22;3219;51.362;7.074;2023-04-09T05:08:15;4.80;99.90
6373;DHT22;3219;51.362;7.074;2023-04-09T05:10:43;4.80;99.90
6373;DHT22;3219;51.362;7.074;2023-04-09T05:13:11;4.80;99.90
6373;DHT22;3219;51.362;7.074;2023-04-09T05:15:38;4.80;99.90
6373;DHT22;3219;51.362;7.074;2023-04-09T05:18:05;4.90;99.90
6373;DHT22;3219;51.362;7.074;2023-04-09T05:20:32;5.10;99.90
6373;DHT22;3219;51.362;7.074;2023-04-09T05:22:59;5.30;99.90
6373;DHT22;3219;51.362;7.074;2023-04-09T05:25:26;6.00;99.90
6373;DHT22;3219;51.362;7.074;2023-04-09T05:27:54;6.90;99.90
6373;DHT22;3219;51.362;7.074;2023-04-09T05:30:21;7.90;99.90
6373;DHT22;3219;51.362;7.074;2023-04-09T05:32:48;8.80;99.90
6373;DHT22;3219;51.362;7.074;2023-04-09T05:35:14;9.70;99.90
6373;DHT22;3219;51.362;7.074;2023-04-09T05:37:41;10.50;99.90
6373;DHT22;3219;51.362;7.074;2023-04-09T05:40:09;11.30;99.90
6373;DHT22;3219;51.362;7.074;2023-04-09T05:42:36;11.90;99.90
6373;DHT22;3219;51.362;7.074;2023-04-09T05:45:05;12.60;99.90
6373;DHT22;3219;51.362;7.074;2023-04-09T05:47:32;13.30;99.90
6373;DHT22;3219;51.362;7.074;2023-04-09T05:49:59;13.90;99.90
6373;DHT22;3219;51.362;7.074;2023-04-09T05:52:26;14.60;99.90
6373;DHT22;3219;51.362;7.074;2023-04-09T05:54:52;15.20;99.90
6373;DHT22;3219;51.362;7.074;2023-04-09T05:57:19;15.80;99.90
6373;DHT22;3219;51.362;7.074;2023-04-09T05:59:46;16.30;99.90
6373;DHT22;3219;51.362;7.074;2023-04-09T06:02:14;16.90;99.90
6373;DHT22;3219;51.362;7.074;2023-04-09T06:04:41;17.30;99.90
6373;DHT22;3219;51.362;7.074;2023-04-09T06:07:07;17.60;99.90
6373;DHT22;3219;51.362;7.074;2023-04-09T06:09:35;18.20;99.90
6373;DHT22;3219;51.362;7.074;2023-04-09T06:12:02;18.60;99.90
6373;DHT22;3219;51.362;7.074;2023-04-09T06:14:30;19.10;99.90
6373;DHT22;3219;51.362;7.074;2023-04-09T06:16:58;19.60;99.90
6373;DHT22;3219;51.362;7.074;2023-04-09T06:19:26;19.90;99.90
6373;DHT22;3219;51.362;7.074;2023-04-09T06:21:53;20.30;98.90
6373;DHT22;3219;51.362;7.074;2023-04-09T06:24:20;20.70;98.80
6373;DHT22;3219;51.362;7.074;2023-04-09T06:26:46;21.10;98.80
6373;DHT22;3219;51.362;7.074;2023-04-09T06:29:13;21.50;98.90
6373;DHT22;3219;51.362;7.074;2023-04-09T06:31:40;22.10;97.80
6373;DHT22;3219;51.362;7.074;2023-04-09T06:34:07;22.40;98.80
6373;DHT22;3219;51.362;7.074;2023-04-09T06:36:36;22.80;95.70
6373;DHT22;3219;51.362;7.074;2023-04-09T06:39:04;23.10;95.50
6373;DHT22;3219;51.362;7.074;2023-04-09T06:41:31;23.10;95.50
6373;DHT22;3219;51.362;7.074;2023-04-09T06:43:58;23.30;97.10
6373;DHT22;3219;51.362;7.074;2023-04-09T06:46:25;23.40;96.10
6373;DHT22;3219;51.362;7.074;2023-04-09T06:48:52;23.60;95.80
6373;DHT22;3219;51.362;7.074;2023-04-09T06:51:19;23.70;95.50
6373;DHT22;3219;51.362;7.074;2023-04-09T06:53:47;23.60;93.20
6373;DHT22;3219;51.362;7.074;2023-04-09T06:56:14;23.60;94.50
6373;DHT22;3219;51.362;7.074;2023-04-09T06:58:41;23.70;93.80
6373;DHT22;3219;51.362;7.074;2023-04-09T07:01:08;23.50;92.00
6373;DHT22;3219;51.362;7.074;2023-04-09T07:03:34;23.30;94.80
6373;DHT22;3219;51.362;7.074;2023-04-09T07:06:01;23.70;91.20
6373;DHT22;3219;51.362;7.074;2023-04-09T07:08:28;23.90;90.60
6373;DHT22;3219;51.362;7.074;2023-04-09T07:10:56;24.10;90.50
6373;DHT22;3219;51.362;7.074;2023-04-09T07:13:23;24.20;90.80
6373;DHT22;3219;51.362;7.074;2023-04-09T07:15:49;24.60;90.90
6373;DHT22;3219;51.362;7.074;2023-04-09T07:18:16;24.80;90.80
6373;DHT22;3219;51.362;7.074;2023-04-09T07:20:43;25.00;91.00
6373;DHT22;3219;51.362;7.074;2023-04-09T07:23:10;25.10;91.00
6373;DHT22;3219;51.362;7.074;2023-04-09T07:25:37;25.10;90.70
6373;DHT22;3219;51.362;7.074;2023-04-09T07:28:05;24.90;90.70
6373;DHT22;3219;51.362;7.074;2023-04-09T07:30:31;24.20;90.80
6373;DHT22;3219;51.362;7.074;2023-04-09T07:32:58;23.40;91.80
6373;DHT22;3219;51.362;7.074;2023-04-09T07:35:25;22.70;92.20
6373;DHT22;3219;51.362;7.074;2023-04-09T07:37:52;22.10;92.70
6373;DHT22;3219;51.362;7.074;2023-04-09T07:40:19;21.90;93.30
6373;DHT22;3219;51.362;7.074;2023-04-09T07:42:45;22.20;94.60
6373;DHT22;3219;51.362;7.074;2023-04-09T07:45:14;22.80;94.20
6373;DHT22;3219;51.362;7.074;2023-04-09T07:47:41;23.70;94.10
6373;DHT22;3219;51.362;7.074;2023-04-09T07:50:08;24.10;94.30
6373;DHT22;3219;51.362;7.074;2023-04-09T07:52:35;24.10;93.30
6373;DHT22;3219;51.362;7.074;2023-04-09T07:55:02;24.50;93.10
6373;DHT22;3219;51.362;7.074;2023-04-09T07:59:58;24.10;95.00
6373;DHT22;3219;51.362;7.074;2023-04-09T08:02:27;24.20;91.70
6373;DHT22;3219;51.362;7.074;2023-04-09T08:04:54;24.50;91.00
6373;DHT22;3219;51.362;7.074;2023-04-09T08:07:21;24.70;90.40
6373;DHT22;3219;51.362;7.074;2023-04-09T08:09:48;24.90;89.20
6373;DHT22;3219;51.362;7.074;2023-04-09T08:12:15;24.80;89.30
6373;DHT22;3219;51.362;7.074;2023-04-09T08:14:41;24.30;90.00
6373;DHT22;3219;51.362;7.074;2023-04-09T08:17:08;23.60;89.50
6373;DHT22;3219;51.362;7.074;2023-04-09T08:19:36;22.90;90.80
6373;DHT22;3219;51.362;7.074;2023-04-09T08:22:03;22.60;90.90
6373;DHT22;3219;51.362;7.074;2023-04-09T08:24:30;22.10;88.70
6373;DHT22;3219;51.362;7.074;2023-04-09T08:26:57;21.30;90.70
6373;DHT22;3219;51.362;7.074;2023-04-09T08:29:25;20.40;90.40
6373;DHT22;3219;51.362;7.074;2023-04-09T08:31:52;19.60;90.50
6373;DHT22;3219;51.362;7.074;2023-04-09T08:34:19;18.90;91.30
6373;DHT22;3219;51.362;7.074;2023-04-09T08:36:47;18.30;92.80
6373;DHT22;3219;51.362;7.074;2023-04-09T08:39:15;17.90;92.90
6373;DHT22;3219;51.362;7.074;2023-04-09T08:41:44;17.70;92.90
6373;DHT22;3219;51.362;7.074;2023-04-09T08:44:12;17.50;93.20
6373;DHT22;3219;51.362;7.074;2023-04-09T08:46:38;17.30;93.10
6373;DHT22;3219;51.362;7.074;2023-04-09T08:49:08;17.20;93.00
6373;DHT22;3219;51.362;7.074;2023-04-09T08:51:35;17.00;93.10
6373;DHT22;3219;51.362;7.074;2023-04-09T08:54:03;16.90;93.40
6373;DHT22;3219;51.362;7.074;2023-04-09T08:56:30;16.60;93.30
6373;DHT22;3219;51.362;7.074;2023-04-09T08:58:57;16.60;93.70
6373;DHT22;3219;51.362;7.074;2023-04-09T09:01:25;16.60;93.50
6373;DHT22;3219;51.362;7.074;2023-04-09T09:03:54;16.60;93.50
6373;DHT22;3219;51.362;7.074;2023-04-09T09:06:22;16.60;93.60
6373;DHT22;3219;51.362;7.074;2023-04-09T09:09:00;16.60;93.40
6373;DHT22;3219;51.362;7.074;2023-04-09T09:11:28;16.50;93.80
6373;DHT22;3219;51.362;7.074;2023-04-09T09:14:00;16.50;94.20
6373;DHT22;3219;51.362;7.074;2023-04-09T09:16:27;16.40;93.60
6373;DHT22;3219;51.362;7.074;2023-04-09T09:18:54;16.40;93.70
6373;DHT22;3219;51.362;7.074;2023-04-09T09:21:21;16.30;92.90
6373;DHT22;3219;51.362;7.074;2023-04-09T09:23:48;16.20;93.40
6373;DHT22;3219;51.362;7.074;2023-04-09T09:26:17;16.20;93.80
6373;DHT22;3219;51.362;7.074;2023-04-09T09:28:47;16.20;93.70
6373;DHT22;3219;51.362;7.074;2023-04-09T09:31:15;16.20;93.70
6373;DHT22;3219;51.362;7.074;2023-04-09T09:33:42;16.30;94.10
6373;DHT22;3219;51.362;7.074;2023-04-09T09:36:09;16.20;95.10
6373;DHT22;3219;51.362;7.074;2023-04-09T09:38:52;16.10;94.90
6373;DHT22;3219;51.362;7.074;2023-04-09T09:41:19;16.10;94.30
6373;DHT22;3219;51.362;7.074;2023-04-09T09:43:47;16.20;94.00
6373;DHT22;3219;51.362;7.074;2023-04-09T09:46:15;16.20;93.70
6373;DHT22;3219;51.362;7.074;2023-04-09T09:48:43;16.10;93.60
6373;DHT22;3219;51.362;7.074;2023-04-09T09:51:12;15.90;93.70
6373;DHT22;3219;51.362;7.074;2023-04-09T09:53:42;15.70;93.30
6373;DHT22;3219;51.362;7.074;2023-04-09T09:56:13;15.50;94.00
6373;DHT22;3219;51.362;7.074;2023-04-09T09:58:44;15.30;94.70
6373;DHT22;3219;51.362;7.074;2023-04-09T10:01:13;15.20;95.30
6373;DHT22;3219;51.362;7.074;2023-04-09T10:03:43;15.10;94.90
6373;DHT22;3219;51.362;7.074;2023-04-09T10:06:12;15.00;96.10
6373;DHT22;3219;51.362;7.074;2023-04-09T10:08:40;15.30;96.00
6373;DHT22;3219;51.362;7.074;2023-04-09T10:11:07;15.60;95.20
6373;DHT22;3219;51.362;7.074;2023-04-09T10:13:36;15.80;96.50
6373;DHT22;3219;51.362;7.074;2023-04-09T10:16:05;15.90;95.70
6373;DHT22;3219;51.362;7.074;2023-04-09T10:18:34;15.70;95.70
6373;DHT22;3219;51.362;7.074;2023-04-09T10:21:05;15.60;95.80
6373;DHT22;3219;51.362;7.074;2023-04-09T10:23:38;15.50;96.30
6373;DHT22;3219;51.362;7.074;2023-04-09T10:26:05;15.50;96.40
6373;DHT22;3219;51.362;7.074;2023-04-09T10:28:32;15.70;96.70
6373;DHT22;3219;51.362;7.074;2023-04-09T10:30:59;16.00;96.80
6373;DHT22;3219;51.362;7.074;2023-04-09T10:33:27;15.90;95.60
6373;DHT22;3219;51.362;7.074;2023-04-09T10:35:59;15.80;95.70
6373;DHT22;3219;51.362;7.074;2023-04-09T10:38:34;15.70;95.70
6373;DHT22;3219;51.362;7.074;2023-04-09T10:41:13;15.80;95.50
6373;DHT22;3219;51.362;7.074;2023-04-09T10:43:40;16.00;95.80
6373;DHT22;3219;51.362;7.074;2023-04-09T10:46:26;16.00;95.20
6373;DHT22;3219;51.362;7.074;2023-04-09T10:49:10;15.80;94.90
6373;DHT22;3219;51.362;7.074;2023-04-09T10:51:39;15.50;94.90
6373;DHT22;3219;51.362;7.074;2023-04-09T10:54:40;15.40;96.20
6373;DHT22;3219;51.362;7.074;2023-04-09T10:57:20;15.50;95.50
6373;DHT22;3219;51.362;7.074;2023-04-09T10:59:49;15.70;96.30
6373;DHT22;3219;51.362;7.074;2023-04-09T11:05:25;16.10;96.70
6373;DHT22;3219;51.362;7.074;2023-04-09T11:07:57;16.30;95.60
6373;DHT22;3219;51.362;7.074;2023-04-09T11:10:26;16.20;94.70
6373;DHT22;3219;51.362;7.074;2023-04-09T11:12:52;16.20;95.20
6373;DHT22;3219;51.362;7.074;2023-04-09T11:15:20;16.20;96.40
6373;DHT22;3219;51.362;7.074;2023-04-09T11:17:47;16.40;97.40
6373;DHT22;3219;51.362;7.074;2023-04-09T11:20:16;16.40;95.50
6373;DHT22;3219;51.362;7.074;2023-04-09T11:22:43;16.40;96.30
6373;DHT22;3219;51.362;7.074;2023-04-09T11:25:10;16.10;96.80
6373;DHT22;3219;51.362;7.074;2023-04-09T11:27:44;15.80;96.50
6373;DHT22;3219;51.362;7.074;2023-04-09T11:30:12;15.70;96.60
6373;DHT22;3219;51.362;7.074;2023-04-09T11:32:39;15.50;95.80
6373;DHT22;3219;51.362;7.074;2023-04-09T11:35:10;15.40;96.20
6373;DHT22;3219;51.362;7.074;2023-04-09T11:37:39;15.40;96.60
6373;DHT22;3219;51.362;7.074;2023-04-09T11:40:07;15.50;96.50
6373;DHT22;3219;51.362;7.074;2023-04-09T11:42:34;15.70;96.80
6373;DHT22;3219;51.362;7.074;2023-04-09T11:45:02;15.70;96.30
6373;DHT22;3219;51.362;7.074;2023-04-09T11:47:30;15.70;96.00
6373;DHT22;3219;51.362;7.074;2023-04-09T11:49:57;15.70;96.70
6373;DHT22;3219;51.362;7.074;2023-04-09T11:52:24;15.60;96.50
6373;DHT22;3219;51.362;7.074;2023-04-09T11:54:52;15.30;96.30
6373;DHT22;3219;51.362;7.074;2023-04-09T11:57:19;14.90;95.70
6373;DHT22;3219;51.362;7.074;2023-04-09T11:59:46;14.70;97.80
6373;DHT22;3219;51.362;7.074;2023-04-09T12:02:16;14.70;97.90
6373;DHT22;3219;51.362;7.074;2023-04-09T12:04:48;14.80;97.60
6373;DHT22;3219;51.362;7.074;2023-04-09T12:07:15;14.80;97.90
6373;DHT22;3219;51.362;7.074;2023-04-09T12:09:46;14.80;99.30
6373;DHT22;3219;51.362;7.074;2023-04-09T12:12:17;15.00;99.30
6373;DHT22;3219;51.362;7.074;2023-04-09T12:14:45;15.10;99.00
6373;DHT22;3219;51.362;7.074;2023-04-09T12:17:12;15.20;97.80
6373;DHT22;3219;51.362;7.074;2023-04-09T12:19:40;15.20;97.40
6373;DHT22;3219;51.362;7.074;2023-04-09T12:22:06;15.10;96.90
6373;DHT22;3219;51.362;7.074;2023-04-09T12:24:33;15.00;97.50
6373;DHT22;3219;51.362;7.074;2023-04-09T12:27:00;14.90;98.20
6373;DHT22;3219;51.362;7.074;2023-04-09T12:29:27;14.90;99.60
6373;DHT22;3219;51.362;7.074;2023-04-09T12:31:54;14.90;98.20
6373;DHT22;3219;51.362;7.074;2023-04-09T12:34:21;14.80;98.80
6373;DHT22;3219;51.362;7.074;2023-04-09T12:36:49;14.80;99.80
6373;DHT22;3219;51.362;7.074;2023-04-09T12:39:15;14.80;99.00
6373;DHT22;3219;51.362;7.074;2023-04-09T12:41:42;14.90;98.90
6373;DHT22;3219;51.362;7.074;2023-04-09T12:44:09;14.90;98.20
6373;DHT22;3219;51.362;7.074;2023-04-09T12:46:36;14.80;98.40
6373;DHT22;3219;51.362;7.074;2023-04-09T12:49:03;14.70;98.80
6373;DHT22;3219;51.362;7.074;2023-04-09T12:51:30;14.60;99.50
6373;DHT22;3219;51.362;7.074;2023-04-09T12:53:58;14.70;99.60
6373;DHT22;3219;51.362;7.074;2023-04-09T12:56:25;14.80;99.60
6373;DHT22;3219;51.362;7.074;2023-04-09T12:58:51;14.80;98.90
6373;DHT22;3219;51.362;7.074;2023-04-09T13:01:18;14.80;99.10
6373;DHT22;3219;51.362;7.074;2023-04-09T13:03:45;14.70;98.70
6373;DHT22;3219;51.362;7.074;2023-04-09T13:06:12;14.70;98.80
6373;DHT22;3219;51.362;7.074;2023-04-09T13:08:39;14.70;99.40
6373;DHT22;3219;51.362;7.074;2023-04-09T13:11:07;14.70;99.90
6373;DHT22;3219;51.362;7.074;2023-04-09T13:13:33;14.70;99.40
6373;DHT22;3219;51.362;7.074;2023-04-09T13:16:00;14.80;99.00
6373;DHT22;3219;51.362;7.074;2023-04-09T13:18:27;14.80;98.40
6373;DHT22;3219;51.362;7.074;2023-04-09T13:20:54;14.80;98.40
6373;DHT22;3219;51.362;7.074;2023-04-09T13:23:21;14.80;99.10
6373;DHT22;3219;51.362;7.074;2023-04-09T13:25:48;14.80;99.40
6373;DHT22;3219;51.362;7.074;2023-04-09T13:28:16;14.90;99.10
6373;DHT22;3219;51.362;7.074;2023-04-09T13:30:42;14.90;99.30
6373;DHT22;3219;51.362;7.074;2023-04-09T13:33:09;15.00;99.00
6373;DHT22;3219;51.362;7.074;2023-04-09T13:35:36;15.00;99.50
6373;DHT22;3219;51.362;7.074;2023-04-09T13:38:03;15.00;99.60
6373;DHT22;3219;51.362;7.074;2023-04-09T13:40:29;15.00;99.20
6373;DHT22;3219;51.362;7.074;2023-04-09T13:42:56;15.10;98.60
6373;DHT22;3219;51.362;7.074;2023-04-09T13:45:24;15.00;98.80
6373;DHT22;3219;51.362;7.074;2023-04-09T13:47:51;14.90;99.00
6373;DHT22;3219;51.362;7.074;2023-04-09T13:50:18;14.80;98.90
6373;DHT22;3219;51.362;7.074;2023-04-09T13:52:44;14.70;99.40
6373;DHT22;3219;51.362;7.074;2023-04-09T13:55:11;14.70;99.00
6373;DHT22;3219;51.362;7.074;2023-04-09T13:57:38;14.60;99.00
6373;DHT22;3219;51.362;7.074;2023-04-09T14:00:06;14.70;98.80
6373;DHT22;3219;51.362;7.074;2023-04-09T14:02:34;14.70;98.90
6373;DHT22;3219;51.362;7.074;2023-04-09T14:05:01;14.70;99.20
6373;DHT22;3219;51.362;7.074;2023-04-09T14:07:29;14.70;99.00
6373;DHT22;3219;51.362;7.074;2023-04-09T14:09:56;14.70;99.30
6373;DHT22;3219;51.362;7.074;2023-04-09T14:12:23;14.70;99.90
6373;DHT22;3219;51.362;7.074;2023-04-09T14:14:51;14.70;99.00
6373;DHT22;3219;51.362;7.074;2023-04-09T14:17:18;14.70;99.10
6373;DHT22;3219;51.362;7.074;2023-04-09T14:19:46;14.80;99.60
6373;DHT22;3219;51.362;7.074;2023-04-09T14:22:13;14.90;99.90
6373;DHT22;3219;51.362;7.074;2023-04-09T14:24:40;15.00;99.90
6373;DHT22;3219;51.362;7.074;2023-04-09T14:27:07;15.00;99.90
6373;DHT22;3219;51.362;7.074;2023-04-09T14:29:34;14.80;98.40
6373;DHT22;3219;51.362;7.074;2023-04-09T14:32:01;14.90;99.90
6373;DHT22;3219;51.362;7.074;2023-04-09T14:34:28;14.90;99.30
6373;DHT22;3219;51.362;7.074;2023-04-09T14:36:57;14.80;99.90
6373;DHT22;3219;51.362;7.074;2023-04-09T14:39:24;14.80;99.70
6373;DHT22;3219;51.362;7.074;2023-04-09T14:41:50;14.80;99.70
6373;DHT22;3219;51.362;7.074;2023-04-09T14:44:18;14.90;99.90
6373;DHT22;3219;51.362;7.074;2023-04-09T14:46:45;14.90;99.90
6373;DHT22;3219;51.362;7.074;2023-04-09T14:49:12;15.00;99.50
6373;DHT22;3219;51.362;7.074;2023-04-09T14:51:39;15.00;98.90
6373;DHT22;3219;51.362;7.074;2023-04-09T14:54:07;15.10;99.70
6373;DHT22;3219;51.362;7.074;2023-04-09T14:56:33;15.10;98.60
6373;DHT22;3219;51.362;7.074;2023-04-09T14:59:00;15.10;99.10
6373;DHT22;3219;51.362;7.074;2023-04-09T15:01:27;15.00;99.40
6373;DHT22;3219;51.362;7.074;2023-04-09T15:03:54;14.90;98.70
6373;DHT22;3219;51.362;7.074;2023-04-09T15:06:21;14.90;99.30
6373;DHT22;3219;51.362;7.074;2023-04-09T15:08:47;14.90;98.70
6373;DHT22;3219;51.362;7.074;2023-04-09T15:11:16;14.80;98.70
6373;DHT22;3219;51.362;7.074;2023-04-09T15:13:43;14.70;99.10
6373;DHT22;3219;51.362;7.074;2023-04-09T15:16:10;14.70;99.80
6373;DHT22;3219;51.362;7.074;2023-04-09T15:18:45;14.50;98.20
6373;DHT22;3219;51.362;7.074;2023-04-09T15:21:15;14.30;98.90
6373;DHT22;3219;51.362;7.074;2023-04-09T15:23:42;14.20;99.00
6373;DHT22;3219;51.362;7.074;2023-04-09T15:26:08;14.10;99.10
6373;DHT22;3219;51.362;7.074;2023-04-09T15:28:37;14.10;99.40
6373;DHT22;3219;51.362;7.074;2023-04-09T15:31:04;14.10;99.40
6373;DHT22;3219;51.362;7.074;2023-04-09T15:33:31;14.10;98.70
6373;DHT22;3219;51.362;7.074;2023-04-09T15:35:58;14.10;98.60
6373;DHT22;3219;51.362;7.074;2023-04-09T15:38:25;14.20;99.10
6373;DHT22;3219;51.362;7.074;2023-04-09T15:40:54;14.20;99.30
6373;DHT22;3219;51.362;7.074;2023-04-09T15:43:21;14.30;98.90
6373;DHT22;3219;51.362;7.074;2023-04-09T15:45:50;14.30;98.60
6373;DHT22;3219;51.362;7.074;2023-04-09T15:48:16;14.30;98.60
6373;DHT22;3219;51.362;7.074;2023-04-09T15:50:43;14.30;98.40
6373;DHT22;3219;51.362;7.074;2023-04-09T15:53:11;14.30;98.40
6373;DHT22;3219;51.362;7.074;2023-04-09T15:55:38;14.30;99.10
6373;DHT22;3219;51.362;7.074;2023-04-09T15:58:05;14.40;98.60
6373;DHT22;3219;51.362;7.074;2023-04-09T16:00:31;14.40;98.70
6373;DHT22;3219;51.362;7.074;2023-04-09T16:03:00;14.40;99.00
6373;DHT22;3219;51.362;7.074;2023-04-09T16:05:27;14.40;98.50
6373;DHT22;3219;51.362;7.074;2023-04-09T16:07:54;14.40;98.90
6373;DHT22;3219;51.362;7.074;2023-04-09T16:10:21;14.40;98.70
6373;DHT22;3219;51.362;7.074;2023-04-09T16:12:48;14.50;98.60
6373;DHT22;3219;51.362;7.074;2023-04-09T16:15:15;14.40;99.30